createdAt,value
2019-06-01T00:03:17.292Z,6.70
2019-06-01T00:04:17.597Z,7.40
2019-06-01T00:05:17.650Z,6.95
2019-06-01T00:06:17.893Z,7.20
2019-06-01T00:07:18.128Z,7.10
2019-06-01T00:10:59.003Z,6.00
2019-06-01T00:13:29.404Z,7.45
2019-06-01T00:14:59.765Z,6.20
2019-06-01T00:17:00.614Z,5.45
2019-06-01T00:18:30.674Z,5.70
2019-06-01T00:27:16.735Z,5.80
2019-06-01T00:28:37.060Z,6.10
2019-06-01T00:30:24.169Z,6.40
2019-06-01T00:31:00.080Z,5.30
2019-06-01T00:33:30.611Z,5.80
2019-06-01T00:35:20.879Z,5.30
2019-06-01T00:43:35.205Z,4.45
2019-06-01T00:44:55.544Z,4.60
2019-06-01T00:46:05.920Z,5.70
2019-06-01T00:46:55.995Z,4.90
2019-06-01T00:48:16.245Z,5.95
2019-06-01T00:49:16.393Z,6.30
2019-06-01T00:50:06.835Z,5.25
2019-06-01T00:51:07.024Z,5.00
2019-06-01T00:52:07.213Z,4.90
2019-06-01T00:53:37.603Z,4.55
2019-06-01T00:55:07.841Z,4.70
2019-06-01T00:56:07.965Z,4.60
2019-06-01T00:57:08.115Z,4.90
2019-06-01T00:58:18.290Z,4.50
2019-06-01T00:59:18.439Z,5.40
2019-06-01T01:00:18.604Z,4.80
2019-06-01T01:01:18.712Z,4.25
2019-06-01T01:02:18.756Z,4.30
2019-06-01T01:03:28.970Z,5.90
2019-06-01T01:05:01.406Z,5.05
2019-06-01T01:06:01.693Z,4.30
2019-06-01T01:07:12.041Z,4.20
2019-06-01T01:08:32.376Z,3.60
2019-06-01T01:10:22.784Z,5.30
2019-06-01T01:11:23.052Z,5.30
2019-06-01T01:12:23.383Z,3.40
2019-06-01T01:13:33.430Z,3.80
2019-06-01T01:15:03.979Z,4.40
2019-06-01T01:16:04.155Z,3.90
2019-06-01T01:18:36.988Z,3.80
2019-06-01T01:20:07.107Z,4.10
2019-06-01T01:21:07.241Z,3.80
2019-06-01T01:22:07.182Z,4.00
2019-06-01T01:23:28.152Z,3.90
2019-06-01T01:24:58.944Z,4.40
2019-06-01T01:26:09.336Z,4.15
2019-06-01T01:27:09.444Z,4.20
2019-06-01T01:30:11.837Z,3.60
2019-06-01T01:31:14.008Z,3.45
2019-06-01T01:33:32.577Z,2.90
2019-06-01T01:35:13.043Z,3.85
2019-06-01T01:36:13.299Z,3.00
2019-06-01T01:37:13.391Z,3.50
2019-06-01T01:38:33.840Z,3.70
2019-06-01T01:41:15.000Z,3.30
2019-06-01T01:42:24.761Z,3.40
2019-06-01T01:43:35.105Z,3.10
2019-06-01T01:44:55.245Z,4.10
2019-06-01T01:45:56.638Z,3.00
2019-06-01T01:47:05.783Z,2.70
2019-06-01T01:48:16.226Z,3.15
2019-06-01T01:49:16.262Z,3.70
2019-06-01T01:50:16.281Z,2.40
2019-06-01T01:51:16.730Z,3.40
2019-06-01T01:52:16.708Z,3.60
2019-06-01T01:53:36.862Z,3.30
2019-06-01T01:54:57.259Z,2.80
2019-06-01T01:56:07.461Z,3.90
2019-06-01T01:57:20.661Z,2.90
2019-06-01T01:58:41.300Z,3.50
2019-06-01T02:02:11.738Z,2.90
2019-06-01T02:03:32.317Z,2.80
2019-06-01T02:05:22.327Z,3.00
2019-06-01T02:06:12.589Z,2.50
2019-06-01T02:07:22.995Z,2.70
2019-06-01T02:10:13.362Z,2.45
2019-06-01T02:12:13.686Z,3.35
2019-06-01T02:15:04.851Z,3.45
2019-06-01T02:16:04.822Z,3.50
2019-06-01T02:17:14.875Z,3.70
2019-06-01T02:18:34.961Z,3.20
2019-06-01T02:20:05.029Z,3.20
2019-06-01T02:21:15.501Z,3.65
2019-06-01T02:22:05.732Z,2.90
2019-06-01T02:23:35.903Z,2.90
2019-06-01T02:25:16.328Z,2.20
2019-06-01T02:26:16.748Z,2.20
2019-06-01T02:27:18.151Z,2.60
2019-06-01T02:28:28.168Z,2.45
2019-06-01T02:33:19.652Z,2.70
2019-06-01T02:36:00.715Z,2.90
2019-06-01T02:38:31.206Z,2.20
2019-06-01T02:40:21.570Z,2.50
2019-06-01T02:41:21.547Z,2.70
2019-06-01T02:43:32.025Z,3.30
2019-06-01T02:46:02.798Z,1.90
2019-06-01T02:47:04.008Z,2.20
2019-06-01T02:48:32.824Z,2.00
2019-06-01T02:52:23.338Z,1.90
2019-06-01T02:55:04.618Z,2.20
2019-06-01T02:56:04.318Z,2.60
2019-06-01T02:57:19.621Z,2.30
2019-06-01T03:02:07.263Z,2.10
2019-06-01T03:06:21.923Z,2.20
2019-06-01T03:07:21.973Z,1.80
2019-06-01T03:08:52.217Z,2.00
2019-06-01T03:10:52.668Z,2.30
2019-06-01T03:12:23.134Z,2.00
2019-06-01T03:13:23.072Z,2.40
2019-06-01T03:14:27.716Z,2.75
2019-06-01T03:16:18.196Z,2.50
2019-06-01T03:17:18.189Z,2.20
2019-06-01T03:18:08.325Z,2.40
2019-06-01T03:19:08.613Z,2.70
2019-06-01T03:20:49.017Z,2.30
2019-06-01T03:22:19.028Z,2.20
2019-06-01T03:23:19.553Z,2.50
2019-06-01T03:24:19.999Z,2.20
2019-06-01T03:25:50.170Z,1.70
2019-06-01T03:27:15.309Z,1.95
2019-06-01T03:28:25.273Z,1.90
2019-06-01T03:29:27.486Z,2.75
2019-06-01T03:30:57.923Z,2.10
2019-06-01T03:32:33.655Z,2.10
2019-06-01T03:33:10.467Z,1.60
2019-06-01T03:34:18.688Z,2.10
2019-06-01T03:35:39.207Z,2.30
2019-06-01T03:37:09.326Z,2.05
2019-06-01T03:39:10.951Z,2.10
2019-06-01T03:42:01.459Z,1.90
2019-06-01T03:43:13.239Z,2.00
2019-06-01T03:45:43.747Z,2.00
2019-06-01T03:47:14.129Z,2.00
2019-06-01T03:48:16.341Z,1.90
2019-06-01T03:49:16.032Z,2.40
2019-06-01T03:52:08.920Z,1.90
2019-06-01T03:55:41.712Z,1.80
2019-06-01T04:00:34.807Z,1.75
2019-06-01T04:02:32.981Z,2.50
2019-06-01T04:03:25.509Z,1.60
2019-06-01T04:04:15.567Z,1.55
2019-06-01T04:05:46.308Z,1.80
2019-06-01T04:07:19.813Z,1.80
2019-06-01T04:08:22.037Z,1.90
2019-06-01T04:09:22.056Z,2.80
2019-06-01T04:10:48.808Z,1.80
2019-06-01T04:12:20.455Z,2.10
2019-06-01T04:13:23.874Z,1.90
2019-06-01T04:14:27.993Z,1.40
2019-06-01T04:15:54.304Z,1.50
2019-06-01T04:18:21.162Z,2.00
2019-06-01T04:19:39.001Z,2.40
2019-06-01T04:22:06.597Z,1.50
2019-06-01T04:24:24.294Z,1.70
2019-06-01T04:28:17.617Z,2.35
2019-06-01T04:29:28.753Z,1.80
2019-06-01T04:32:26.108Z,1.85
2019-06-01T04:33:30.709Z,1.80
2019-06-01T04:34:44.109Z,1.80
2019-06-01T04:36:08.983Z,1.90
2019-06-01T04:37:44.478Z,1.40
2019-06-01T04:39:53.035Z,1.90
2019-06-01T04:43:54.497Z,1.30
2019-06-01T04:45:30.050Z,1.75
2019-06-01T04:46:45.987Z,2.00
2019-06-01T04:48:00.518Z,1.90
2019-06-01T04:49:04.433Z,1.35
2019-06-01T04:50:30.233Z,2.10
2019-06-01T04:52:02.333Z,1.30
2019-06-01T04:53:06.867Z,1.65
2019-06-01T04:54:08.782Z,2.30
2019-06-01T04:55:30.612Z,1.70
2019-06-01T04:57:50.686Z,2.10
2019-06-01T05:00:41.828Z,1.20
2019-06-01T05:02:25.407Z,1.40
2019-06-01T05:03:25.413Z,1.40
2019-06-01T05:04:15.658Z,1.10
2019-06-01T05:05:52.467Z,1.45
2019-06-01T05:07:15.391Z,2.30
2019-06-01T05:08:15.899Z,2.00
2019-06-01T05:09:15.958Z,1.90
2019-06-01T05:10:57.848Z,1.50
2019-06-01T05:12:09.232Z,1.90
2019-06-01T05:13:15.645Z,1.15
2019-06-01T05:14:16.468Z,1.80
2019-06-01T05:16:09.988Z,1.50
2019-06-01T05:17:12.905Z,1.85
2019-06-01T05:18:26.929Z,1.95
2019-06-01T05:19:33.543Z,2.00
2019-06-01T05:20:56.689Z,1.40
2019-06-01T05:22:29.185Z,1.65
2019-06-01T05:23:39.185Z,1.80
2019-06-01T05:25:56.417Z,1.50
2019-06-01T05:29:58.392Z,1.10
2019-06-01T05:31:39.725Z,1.95
2019-06-01T05:32:57.484Z,2.05
2019-06-01T05:34:07.712Z,1.55
2019-06-01T05:36:40.872Z,1.30
2019-06-01T05:37:54.885Z,1.60
2019-06-01T05:39:12.660Z,1.30
2019-06-01T05:41:26.793Z,1.50
2019-06-01T05:43:03.461Z,1.20
2019-06-01T05:43:59.076Z,1.30
2019-06-01T05:45:38.728Z,1.40
2019-06-01T05:47:02.299Z,1.40
2019-06-01T05:48:16.116Z,1.70
2019-06-01T05:50:44.264Z,2.50
2019-06-01T05:52:18.772Z,3.95
2019-06-01T05:54:12.471Z,10.00
2019-06-01T06:00:21.228Z,35.15
2019-06-01T06:04:44.715Z,49.30
2019-06-01T06:07:28.154Z,45.90
2019-06-01T06:08:32.042Z,44.95
2019-06-01T06:09:34.446Z,39.00
2019-06-01T06:14:54.832Z,45.35
2019-06-01T06:16:44.082Z,50.60
2019-06-01T06:17:47.496Z,53.40
2019-06-01T06:19:04.981Z,52.20
2019-06-01T06:20:06.241Z,52.35
2019-06-01T06:23:58.996Z,54.30
2019-06-01T06:25:15.283Z,57.75
2019-06-01T06:27:10.968Z,55.00
2019-06-01T06:30:24.071Z,52.40
2019-06-01T06:33:17.437Z,46.20
2019-06-01T06:35:49.302Z,58.00
2019-06-01T06:37:24.945Z,56.90
2019-06-01T06:38:43.760Z,54.90
2019-06-01T06:42:38.777Z,48.30
2019-06-01T06:43:46.795Z,54.80
2019-06-01T06:46:24.933Z,54.70
2019-06-01T06:50:09.353Z,53.00
2019-06-01T06:51:59.506Z,55.10
2019-06-01T06:53:01.593Z,55.75
2019-06-01T06:54:10.196Z,51.10
2019-06-01T06:57:24.201Z,53.70
2019-06-01T07:02:30.493Z,47.75
2019-06-01T07:04:17.048Z,45.70
2019-06-01T07:06:00.228Z,43.85
2019-06-01T07:07:29.830Z,50.35
2019-06-01T07:08:32.378Z,47.60
2019-06-01T07:11:16.222Z,46.80
2019-06-01T07:12:42.078Z,45.65
2019-06-01T07:16:31.739Z,44.75
2019-06-01T07:17:45.192Z,47.20
2019-06-01T07:20:29.638Z,47.60
2019-06-01T07:22:32.090Z,43.00
2019-06-01T07:24:45.329Z,46.40
2019-06-01T07:27:16.027Z,43.55
2019-06-01T07:32:05.261Z,39.40
2019-06-01T07:35:54.317Z,39.15
2019-06-01T07:38:22.490Z,39.00
2019-06-01T07:41:10.653Z,38.55
2019-06-01T07:42:23.415Z,38.50
2019-06-01T07:43:33.394Z,37.50
2019-06-01T07:44:45.178Z,37.10
2019-06-01T07:46:23.360Z,38.20
2019-06-01T07:47:35.039Z,35.90
2019-06-01T07:48:45.162Z,36.10
2019-06-01T07:49:45.776Z,37.85
2019-06-01T07:51:40.429Z,39.20
2019-06-01T07:52:38.846Z,34.40
2019-06-01T07:53:55.021Z,35.90
2019-06-01T07:55:04.671Z,33.40
2019-06-01T08:01:49.613Z,31.60
2019-06-01T08:03:40.725Z,30.60
2019-06-01T08:05:41.521Z,28.10
2019-06-01T08:07:18.118Z,28.00
2019-06-01T08:09:09.899Z,30.50
2019-06-01T08:12:17.861Z,29.40
2019-06-01T08:13:33.759Z,26.55
2019-06-01T08:16:33.819Z,25.00
2019-06-01T08:18:06.535Z,25.65
2019-06-01T08:19:51.951Z,24.95
2019-06-01T08:21:56.645Z,24.50
2019-06-01T08:23:01.667Z,24.75
2019-06-01T08:24:24.185Z,25.20
2019-06-01T08:27:12.720Z,24.80
2019-06-01T08:28:47.706Z,22.40
2019-06-01T08:34:08.003Z,22.60
2019-06-01T08:35:29.052Z,23.90
2019-06-01T08:36:37.984Z,22.90
2019-06-01T08:37:38.002Z,21.50
2019-06-01T08:38:38.088Z,22.80
2019-06-01T08:40:08.046Z,22.85
2019-06-01T08:41:38.062Z,18.85
2019-06-01T08:42:38.084Z,21.40
2019-06-01T08:45:08.187Z,21.65
2019-06-01T08:46:28.238Z,19.10
2019-06-01T08:47:28.278Z,19.70
2019-06-01T08:48:29.875Z,18.40
2019-06-01T08:50:08.367Z,18.50
2019-06-01T08:51:28.447Z,17.30
2019-06-01T08:52:28.418Z,18.80
2019-06-01T08:53:38.446Z,19.20
2019-06-01T08:55:08.525Z,17.70
2019-06-01T08:56:28.472Z,17.80
2019-06-01T08:57:38.484Z,19.45
2019-06-01T08:58:38.503Z,17.60
2019-06-01T08:59:58.549Z,17.70
2019-06-01T09:01:18.550Z,16.20
2019-06-01T09:02:29.097Z,14.90
2019-06-01T09:03:29.747Z,17.35
2019-06-01T09:05:23.238Z,17.50
2019-06-01T09:06:29.096Z,16.20
2019-06-01T09:07:18.810Z,15.70
2019-06-01T09:08:28.939Z,16.50
2019-06-01T09:10:08.866Z,14.50
2019-06-01T09:11:29.226Z,14.30
2019-06-01T09:12:38.900Z,14.55
2019-06-01T09:13:29.113Z,15.45
2019-06-01T09:15:08.927Z,15.00
2019-06-01T09:16:29.563Z,13.70
2019-06-01T09:18:29.775Z,13.00
2019-06-01T09:23:29.506Z,13.90
2019-06-01T09:26:29.704Z,11.50
2019-06-01T09:27:29.732Z,11.50
2019-06-01T09:31:30.317Z,12.25
2019-06-01T09:32:30.024Z,11.50
2019-06-01T09:33:30.118Z,11.25
2019-06-01T09:36:32.448Z,11.85
2019-06-01T09:41:32.566Z,10.50
2019-06-01T09:43:32.788Z,9.60
2019-06-01T09:47:33.227Z,9.80
2019-06-01T09:48:33.226Z,10.00
2019-06-01T09:50:02.198Z,10.05
2019-06-01T09:51:33.371Z,8.90
2019-06-01T09:52:33.216Z,9.35
2019-06-01T09:53:32.523Z,9.80
2019-06-01T09:55:02.318Z,9.05
2019-06-01T10:02:32.390Z,8.60
2019-06-01T10:05:02.429Z,7.20
2019-06-01T10:06:32.540Z,7.60
2019-06-01T10:07:42.481Z,8.30
2019-06-01T10:08:42.541Z,9.10
2019-06-01T10:10:02.540Z,8.55
2019-06-01T10:13:33.306Z,7.70
2019-06-01T10:15:02.662Z,6.55
2019-06-01T10:16:43.192Z,7.10
2019-06-01T10:17:42.995Z,7.10
2019-06-01T10:18:32.820Z,7.00
2019-06-01T10:20:12.759Z,6.20
2019-06-01T10:21:33.923Z,6.20
2019-06-01T10:22:33.082Z,6.40
2019-06-01T10:23:42.915Z,5.90
2019-06-01T10:25:02.921Z,5.50
2019-06-01T10:26:43.006Z,5.65
2019-06-01T10:27:34.182Z,6.20
2019-06-01T10:28:42.989Z,5.40
2019-06-01T10:30:13.011Z,4.60
2019-06-01T10:31:33.021Z,5.15
2019-06-01T10:32:34.193Z,5.20
2019-06-01T10:35:13.073Z,5.70
2019-06-01T10:36:43.177Z,6.30
2019-06-01T10:37:43.217Z,7.00
2019-06-01T10:38:33.442Z,8.00
2019-06-01T10:39:43.242Z,8.20
2019-06-01T10:40:43.247Z,8.70
2019-06-01T10:41:33.297Z,7.80
2019-06-01T10:42:43.389Z,8.30
2019-06-01T10:43:33.725Z,9.10
2019-06-01T10:45:03.491Z,72.10
2019-06-01T10:47:33.813Z,53.40
2019-06-01T10:48:34.486Z,49.75
2019-06-01T10:49:33.875Z,41.90
2019-06-01T10:51:33.933Z,36.25
2019-06-01T10:52:34.504Z,35.90
2019-06-01T10:56:34.340Z,34.20
2019-06-01T10:57:34.472Z,32.80
2019-06-01T10:58:34.658Z,33.00
2019-06-01T11:00:14.105Z,31.40
2019-06-01T11:01:44.201Z,30.55
2019-06-01T11:02:34.810Z,30.10
2019-06-01T11:03:44.236Z,28.80
2019-06-01T11:05:14.253Z,28.10
2019-06-01T11:06:37.572Z,26.10
2019-06-01T11:07:44.445Z,24.30
2019-06-01T11:08:35.463Z,22.65
2019-06-01T11:09:34.814Z,22.75
2019-06-01T11:10:44.373Z,22.20
2019-06-01T11:11:44.387Z,22.60
2019-06-01T11:12:44.418Z,22.55
2019-06-01T11:13:44.422Z,22.45
2019-06-01T11:15:04.441Z,19.05
2019-06-01T11:16:35.154Z,19.00
2019-06-01T11:17:44.509Z,18.00
2019-06-01T11:18:44.523Z,18.60
2019-06-01T11:20:14.538Z,16.90
2019-06-01T11:22:35.469Z,16.60
2019-06-01T11:25:04.724Z,16.00
2019-06-01T11:26:35.556Z,15.70
2019-06-01T11:27:44.750Z,15.70
2019-06-01T11:28:36.160Z,15.70
2019-06-01T11:30:14.880Z,15.50
2019-06-01T11:31:44.892Z,15.25
2019-06-01T11:32:35.898Z,14.20
2019-06-01T11:33:44.919Z,13.40
2019-06-01T11:35:14.982Z,13.35
2019-06-01T11:37:36.078Z,13.15
2019-06-01T11:40:36.099Z,12.50
2019-06-01T11:41:36.306Z,13.40
2019-06-01T11:46:36.409Z,10.45
2019-06-01T11:47:36.464Z,10.60
2019-06-01T11:48:37.018Z,9.90
2019-06-01T11:50:15.417Z,11.10
2019-06-01T11:51:35.493Z,10.20
2019-06-01T11:52:35.464Z,9.50
2019-06-01T11:56:35.547Z,9.30
2019-06-01T11:57:35.610Z,9.25
2019-06-01T11:58:45.727Z,8.30
2019-06-01T12:00:15.647Z,7.40
2019-06-01T12:01:45.979Z,7.55
2019-06-01T12:02:46.063Z,6.80
2019-06-01T12:03:35.685Z,7.10
2019-06-01T12:05:05.709Z,6.40
2019-06-01T12:07:35.753Z,5.90
2019-06-01T12:11:46.360Z,6.40
2019-06-01T12:12:46.459Z,6.20
2019-06-01T12:13:36.057Z,5.80
2019-06-01T12:16:36.381Z,5.40
2019-06-01T12:17:47.292Z,5.10
2019-06-01T12:18:36.435Z,5.85
2019-06-01T12:20:16.073Z,5.50
2019-06-01T12:21:37.037Z,4.85
2019-06-01T12:25:06.211Z,4.40
2019-06-01T12:26:37.215Z,4.20
2019-06-01T12:27:37.295Z,4.60
2019-06-01T12:28:46.254Z,3.95
2019-06-01T12:30:06.284Z,3.70
2019-06-01T12:31:37.562Z,3.95
2019-06-01T12:32:37.688Z,3.90
2019-06-01T12:33:37.852Z,5.50
2019-06-01T12:35:16.447Z,3.60
2019-06-01T12:36:46.524Z,3.80
2019-06-01T12:38:02.609Z,3.70
2019-06-01T12:38:46.557Z,5.00
2019-06-01T12:40:07.818Z,3.75
2019-06-01T12:41:36.639Z,3.60
2019-06-01T12:42:36.659Z,4.20
2019-06-01T12:43:36.661Z,3.80
2019-06-01T12:46:47.007Z,3.30
2019-06-01T12:47:36.747Z,4.00
2019-06-01T12:51:47.110Z,3.00
2019-06-01T12:52:46.828Z,3.70
2019-06-01T12:53:36.888Z,3.40
2019-06-01T12:55:16.927Z,2.80
2019-06-01T12:56:48.060Z,2.80
2019-06-01T12:57:36.974Z,2.50
2019-06-01T12:58:36.998Z,2.55
2019-06-01T12:59:47.337Z,3.20
2019-06-01T13:00:48.341Z,3.40
2019-06-01T13:01:37.048Z,2.70
2019-06-01T13:02:56.133Z,3.60
2019-06-01T13:03:47.510Z,2.90
2019-06-01T13:05:07.086Z,3.10
2019-06-01T13:11:37.247Z,3.90
2019-06-01T13:12:37.287Z,2.90
2019-06-01T13:13:37.303Z,2.70
2019-06-01T13:15:17.485Z,3.65
2019-06-01T13:16:37.339Z,2.55
2019-06-01T13:17:37.366Z,2.60
2019-06-01T13:21:37.488Z,3.00
2019-06-01T13:22:37.500Z,2.70
2019-06-01T13:23:47.660Z,2.70
2019-06-01T13:25:07.531Z,2.80
2019-06-01T13:26:37.583Z,2.10
2019-06-01T13:27:40.745Z,2.55
2019-06-01T13:30:07.632Z,2.50
2019-06-01T13:31:37.712Z,2.30
2019-06-01T13:32:37.692Z,2.30
2019-06-01T13:33:50.663Z,3.00
2019-06-01T13:35:07.797Z,2.30
2019-06-01T13:37:37.820Z,2.50
2019-06-01T13:38:37.858Z,2.30
2019-06-01T13:40:07.884Z,2.25
2019-06-01T13:41:49.336Z,2.40
2019-06-01T13:42:37.930Z,2.00
2019-06-01T13:43:48.016Z,2.20
2019-06-01T13:45:08.019Z,2.30
2019-06-01T13:46:38.060Z,1.80
2019-06-01T13:47:38.106Z,2.20
2019-06-01T13:48:38.097Z,2.60
2019-06-01T13:51:38.165Z,2.00
2019-06-01T13:53:48.503Z,2.20
2019-06-01T13:55:18.278Z,1.70
2019-06-01T13:56:28.531Z,2.60
2019-06-01T14:00:08.380Z,1.70
2019-06-01T14:01:48.791Z,1.70
2019-06-01T14:02:51.157Z,1.85
2019-06-01T14:03:53.973Z,2.10
2019-06-01T14:05:22.915Z,1.60
2019-06-01T14:06:42.984Z,1.50
2019-06-01T14:07:42.959Z,1.90
2019-06-01T14:08:42.986Z,1.70
2019-06-01T14:10:12.995Z,2.60
2019-06-01T14:11:33.075Z,2.20
2019-06-01T14:12:43.037Z,2.10
2019-06-01T14:13:43.137Z,2.20
2019-06-01T14:15:13.095Z,1.70
2019-06-01T14:16:43.101Z,2.10
2019-06-01T14:17:33.252Z,2.05
2019-06-01T14:18:43.224Z,2.00
2019-06-01T14:20:13.222Z,1.40
2019-06-01T14:21:33.206Z,1.70
2019-06-01T14:22:43.235Z,1.80
2019-06-01T14:23:33.238Z,1.40
2019-06-01T14:25:12.256Z,1.80
2019-06-01T14:26:43.333Z,2.05
2019-06-01T14:27:43.331Z,1.20
2019-06-01T14:28:33.342Z,1.30
2019-06-01T14:30:13.307Z,2.10
2019-06-01T14:31:43.330Z,1.40
2019-06-01T14:33:33.396Z,1.20
2019-06-01T14:35:13.438Z,1.15
2019-06-01T14:36:33.474Z,2.15
2019-06-01T14:37:33.507Z,1.75
2019-06-01T14:38:46.789Z,1.40
2019-06-01T14:43:43.603Z,1.60
2019-06-01T14:46:53.260Z,1.90
2019-06-01T14:47:43.784Z,1.60
2019-06-01T14:51:43.857Z,1.45
2019-06-01T14:53:43.938Z,1.40
2019-06-01T14:56:43.991Z,1.75
2019-06-01T14:57:44.030Z,2.00
2019-06-01T15:07:44.317Z,1.40
2019-06-01T15:08:44.393Z,1.10
2019-06-01T15:10:14.402Z,1.50
2019-06-01T15:13:44.502Z,1.30
2019-06-01T15:17:44.601Z,1.30
2019-06-01T15:18:44.770Z,1.30
2019-06-01T15:20:14.696Z,1.60
2019-06-01T15:25:14.893Z,1.40
2019-06-01T15:26:44.914Z,1.55
2019-06-01T15:27:44.929Z,1.80
2019-06-01T15:28:44.976Z,1.60
2019-06-01T15:31:45.182Z,2.30
2019-06-01T15:35:15.294Z,1.10
2019-06-01T15:37:45.371Z,1.30
2019-06-01T15:40:15.500Z,1.20
2019-06-01T15:41:45.507Z,1.20
2019-06-01T15:42:45.548Z,1.75
2019-06-01T15:43:45.603Z,1.10
2019-06-01T15:45:15.610Z,2.50
2019-06-01T15:48:45.730Z,1.25
2019-06-01T15:53:45.805Z,1.80
2019-06-01T15:55:15.852Z,0.90
2019-06-01T15:56:45.865Z,1.70
2019-06-01T15:57:45.884Z,0.90
2019-06-01T15:58:52.631Z,1.70
2019-06-01T16:00:15.992Z,1.35
2019-06-01T16:01:46.008Z,1.50
2019-06-01T16:03:46.031Z,1.10
2019-06-01T16:05:16.151Z,3.50
2019-06-01T16:06:46.102Z,2.30
2019-06-01T16:07:46.155Z,1.45
2019-06-01T16:10:16.214Z,1.95
2019-06-01T16:13:46.402Z,2.25
2019-06-01T16:15:16.458Z,1.10
2019-06-01T16:17:46.491Z,1.05
2019-06-01T16:18:46.592Z,1.55
2019-06-01T16:21:46.584Z,1.20
2019-06-01T16:22:47.426Z,1.60
2019-06-01T16:23:50.160Z,1.35
2019-06-01T16:26:46.805Z,1.40
2019-06-01T16:28:46.837Z,1.30
2019-06-01T16:31:46.939Z,1.10
2019-06-01T16:33:46.908Z,1.20
2019-06-01T16:36:46.968Z,1.50
2019-06-01T16:40:17.013Z,1.90
2019-06-01T16:42:47.100Z,1.80
2019-06-01T16:43:47.103Z,3.60
2019-06-01T16:45:17.135Z,2.70
2019-06-01T16:48:47.275Z,2.70
2019-06-01T16:53:27.347Z,2.85
2019-06-01T16:56:47.531Z,3.00
2019-06-01T17:00:17.559Z,3.80
2019-06-01T17:02:47.595Z,3.80
2019-06-01T17:06:47.722Z,2.50
2019-06-01T17:08:47.851Z,3.50
2019-06-01T17:11:47.887Z,8.70
2019-06-01T17:12:49.026Z,12.90
2019-06-01T17:14:18.059Z,7.50
2019-06-01T17:15:48.054Z,5.60
2019-06-01T17:16:48.052Z,6.05
2019-06-01T17:25:48.360Z,3.60
2019-06-01T17:26:48.380Z,5.10
2019-06-01T17:27:48.411Z,3.90
2019-06-01T17:28:58.439Z,3.05
2019-06-01T17:30:38.510Z,3.10
2019-06-01T17:31:53.524Z,3.00
2019-06-01T17:32:48.538Z,2.80
2019-06-01T17:34:13.301Z,3.20
2019-06-01T17:35:43.395Z,4.05
2019-06-01T17:37:43.489Z,3.80
2019-06-01T17:38:53.512Z,3.65
2019-06-01T17:39:53.809Z,3.30
2019-06-01T17:40:53.580Z,4.60
2019-06-01T17:41:43.665Z,4.40
2019-06-01T17:42:43.649Z,3.60
2019-06-01T17:44:13.695Z,4.10
2019-06-01T17:45:23.732Z,3.00
2019-06-01T17:46:53.258Z,4.85
2019-06-01T17:47:43.880Z,4.05
2019-06-01T17:48:53.937Z,4.85
2019-06-01T17:49:54.047Z,4.00
2019-06-01T17:50:54.027Z,4.30
2019-06-01T17:51:44.006Z,3.00
2019-06-01T17:52:54.076Z,3.40
2019-06-01T17:55:24.142Z,5.00
2019-06-01T17:56:44.211Z,3.95
2019-06-01T18:00:54.507Z,5.85
2019-06-01T18:01:54.646Z,4.30
2019-06-01T18:02:45.465Z,4.35
2019-06-01T18:04:14.685Z,5.65
2019-06-01T18:06:44.911Z,2.90
2019-06-01T18:07:45.003Z,3.50
2019-06-01T18:08:54.994Z,4.30
2019-06-01T18:09:55.067Z,3.80
2019-06-01T18:10:55.238Z,3.35
2019-06-01T18:11:45.155Z,4.30
2019-06-01T18:12:55.174Z,4.40
2019-06-01T18:14:15.208Z,5.80
2019-06-01T18:16:45.342Z,5.60
2019-06-01T18:18:55.463Z,13.85
2019-06-01T18:19:55.535Z,28.85
2019-06-01T18:20:55.591Z,25.35
2019-06-01T18:21:45.652Z,21.40
2019-06-01T18:22:45.745Z,26.20
2019-06-01T18:25:25.828Z,19.60
2019-06-01T18:26:45.836Z,22.45
2019-06-01T18:28:55.926Z,15.80
2019-06-01T18:29:55.938Z,13.50
2019-06-01T18:30:45.938Z,12.05
2019-06-01T18:31:45.973Z,12.70
2019-06-01T18:32:56.084Z,14.35
2019-06-01T18:35:56.096Z,11.85
2019-06-01T18:36:56.140Z,11.45
2019-06-01T18:37:56.301Z,13.30
2019-06-01T18:39:26.222Z,42.50
2019-06-01T18:42:46.363Z,45.40
2019-06-01T18:44:16.404Z,55.25
2019-06-01T18:45:46.477Z,53.85
2019-06-01T18:46:46.455Z,38.70
2019-06-01T18:47:46.469Z,26.90
2019-06-01T18:50:46.598Z,22.30
2019-06-01T18:51:46.601Z,17.40
2019-06-01T18:56:46.724Z,14.10
2019-06-01T18:59:16.823Z,16.85
2019-06-01T19:06:17.203Z,19.45
2019-06-01T19:07:47.247Z,18.50
2019-06-01T19:08:47.287Z,18.20
2019-06-01T19:09:47.338Z,15.10
2019-06-01T19:12:47.432Z,12.85
2019-06-01T19:17:27.653Z,10.75
2019-06-01T19:18:47.790Z,10.10
2019-06-01T19:19:47.672Z,10.45
2019-06-01T19:22:47.970Z,10.30
2019-06-01T19:24:48.058Z,11.70
2019-06-01T19:28:38.392Z,11.45
2019-06-01T19:29:08.804Z,10.50
2019-06-01T19:30:18.547Z,10.85
2019-06-01T19:31:08.816Z,9.60
2019-06-01T19:31:58.638Z,11.45
2019-06-01T19:32:58.674Z,11.20
2019-06-01T19:34:52.945Z,11.65
2019-06-01T19:35:42.961Z,11.40
2019-06-01T19:36:32.990Z,11.65
2019-06-01T19:37:33.005Z,11.65
2019-06-01T19:38:33.060Z,12.90
2019-06-01T19:39:33.095Z,11.85
2019-06-01T19:41:03.163Z,12.00
2019-06-01T19:42:43.172Z,12.10
2019-06-01T19:43:53.391Z,10.90
2019-06-01T19:44:43.371Z,11.35
2019-06-01T19:46:03.384Z,10.60
2019-06-01T19:47:33.406Z,11.15
2019-06-01T19:48:43.533Z,10.35
2019-06-01T19:49:44.020Z,9.60
2019-06-01T19:51:03.601Z,11.20
2019-06-01T19:52:53.648Z,10.45
2019-06-01T19:53:53.663Z,9.40
2019-06-01T19:54:53.720Z,10.70
2019-06-01T19:56:03.769Z,8.45
2019-06-01T19:57:33.793Z,9.60
2019-06-01T19:58:43.802Z,8.75
2019-06-01T19:59:33.943Z,9.90
2019-06-01T20:00:53.833Z,9.50
2019-06-01T20:01:53.836Z,8.95
2019-06-01T20:02:53.848Z,10.60
2019-06-01T20:03:54.093Z,8.15
2019-06-01T20:04:54.054Z,10.10
2019-06-01T20:06:14.743Z,9.80
2019-06-01T20:07:44.128Z,8.40
2019-06-01T20:08:44.136Z,8.85
2019-06-01T20:09:44.289Z,10.40
2019-06-01T20:10:54.187Z,8.00
2019-06-01T20:12:01.657Z,9.20
2019-06-01T20:12:54.184Z,9.65
2019-06-01T20:13:54.207Z,7.90
2019-06-01T20:14:54.358Z,7.75
2019-06-01T20:16:04.277Z,8.20
2019-06-01T20:17:44.314Z,8.15
2019-06-01T20:18:34.463Z,6.80
2019-06-01T20:19:34.416Z,9.10
2019-06-01T20:20:54.427Z,7.55
2019-06-01T20:21:54.429Z,7.70
2019-06-01T20:22:54.441Z,7.90
2019-06-01T20:23:54.445Z,7.20
2019-06-01T20:24:44.454Z,9.65
2019-06-01T20:26:15.223Z,8.30
2019-06-01T20:27:34.486Z,8.50
2019-06-01T20:28:44.496Z,8.10
2019-06-01T20:29:44.526Z,7.85
2019-06-01T20:31:04.525Z,7.30
2019-06-01T20:32:54.551Z,8.45
2019-06-01T20:33:56.315Z,7.70
2019-06-01T20:36:04.877Z,6.90
2019-06-01T20:37:34.646Z,7.25
2019-06-01T20:38:34.690Z,7.30
2019-06-01T20:39:34.685Z,7.00
2019-06-01T20:40:54.727Z,7.15
2019-06-01T20:41:54.720Z,8.10
2019-06-01T20:42:44.738Z,6.25
2019-06-01T20:43:44.849Z,5.60
2019-06-01T20:44:44.862Z,6.50
2019-06-01T20:46:14.948Z,5.00
2019-06-01T20:47:45.142Z,7.90
2019-06-01T20:48:45.159Z,7.20
2019-06-01T20:49:45.279Z,6.30
2019-06-01T20:51:05.357Z,5.90
2019-06-01T20:52:55.343Z,7.70
2019-06-01T20:53:45.408Z,5.20
2019-06-01T20:54:45.482Z,6.40
2019-06-01T20:56:05.579Z,5.50
2019-06-01T20:57:45.611Z,5.55
2019-06-01T20:58:45.681Z,6.85
2019-06-01T20:59:35.709Z,6.20
2019-06-01T21:00:55.738Z,6.75
2019-06-01T21:01:55.784Z,6.35
2019-06-01T21:02:45.854Z,5.95
2019-06-01T21:03:55.883Z,6.80
2019-06-01T21:04:45.864Z,6.10
2019-06-01T21:06:16.037Z,6.50
2019-06-01T21:07:36.091Z,5.90
2019-06-01T21:08:46.143Z,7.70
2019-06-01T21:09:46.225Z,8.60
2019-06-01T21:10:56.350Z,6.15
2019-06-01T21:11:56.410Z,6.75
2019-06-01T21:12:56.620Z,6.40
2019-06-01T21:13:46.575Z,6.60
2019-06-01T21:14:56.594Z,7.00
2019-06-01T21:16:06.624Z,6.30
2019-06-01T21:17:49.940Z,7.00
2019-06-01T21:18:36.738Z,7.10
2019-06-01T21:19:46.757Z,6.40
2019-06-01T21:21:06.816Z,5.95
2019-06-01T21:22:56.915Z,4.70
2019-06-01T21:23:57.066Z,5.70
2019-06-01T21:24:56.994Z,8.40
2019-06-01T21:28:37.063Z,5.70
2019-06-01T21:30:57.142Z,5.00
2019-06-01T21:31:57.153Z,6.15
2019-06-01T21:33:57.281Z,6.90
2019-06-01T21:34:57.198Z,6.25
2019-06-01T21:37:37.270Z,5.10
2019-06-01T21:38:38.324Z,7.45
2019-06-01T21:39:37.347Z,6.20
2019-06-01T21:40:57.368Z,5.60
2019-06-01T21:41:57.412Z,5.65
2019-06-01T21:43:57.621Z,6.10
2019-06-01T21:48:37.692Z,5.35
2019-06-01T21:51:07.929Z,4.90
2019-06-01T21:53:58.022Z,6.80
2019-06-01T21:56:08.190Z,5.10
2019-06-01T21:57:38.370Z,5.25
2019-06-01T21:58:38.472Z,5.55
2019-06-01T21:59:48.458Z,5.10
2019-06-01T22:01:08.477Z,4.65
2019-06-01T22:02:48.513Z,5.00
2019-06-01T22:03:38.519Z,5.80
2019-06-01T22:04:53.932Z,5.20
2019-06-01T22:07:34.240Z,5.00
2019-06-01T22:09:34.163Z,5.40
2019-06-01T22:10:54.172Z,5.50
2019-06-01T22:11:54.213Z,4.70
2019-06-01T22:18:34.562Z,4.90
2019-06-01T22:20:54.755Z,5.00